Time;durP1;ratioP1;P1;durP2;ratioP2;P2;SDS_P1;SDS_P2;PMS_P1;PMS_P2;Temp;Humidity;BMP_temperature;BMP_pressure;BME280_temperature;BME280_humidity;BME280_pressure;Samples;Min_cycle;Max_cycle;Signal;HPM_P1;HPM_P2
2023/05/16 00:01:09;;;;;;;41.80;21.17;;;14.00;99.90;;;;;;5080175;27;20599;-61
2023/05/16 00:03:36;;;;;;;35.70;22.73;;;13.90;99.90;;;;;;5091843;27;20482;-61
2023/05/16 00:06:04;;;;;;;37.87;21.20;;;15.70;99.90;;;;;;5061175;27;21015;-61
2023/05/16 00:08:32;;;;;;;29.20;20.60;;;13.90;99.90;;;;;;5091132;27;20530;-63
2023/05/16 00:10:59;;;;;;;32.90;21.60;;;13.90;99.90;;;;;;5076072;27;21025;-61
2023/05/16 00:13:25;;;;;;;32.23;20.17;;;14.00;99.90;;;;;;5086586;27;20497;-61
2023/05/16 00:15:53;;;;;;;31.23;22.07;;;14.10;99.90;;;;;;5068709;28;20485;-61
2023/05/16 00:18:21;;;;;;;30.77;20.20;;;14.10;99.90;;;;;;5065077;28;20482;-60
2023/05/16 00:20:47;;;;;;;32.17;20.17;;;14.00;99.90;;;;;;5046488;28;21002;-61
2023/05/16 00:23:15;;;;;;;30.50;20.10;;;14.00;99.90;;;;;;5071573;27;20499;-61
2023/05/16 00:25:45;;;;;;;33.83;21.47;;;14.00;99.90;;;;;;5089117;27;20480;-61
2023/05/16 00:28:12;;;;;;;30.00;20.67;;;14.00;99.90;;;;;;5080346;27;20761;-61
2023/05/16 00:30:39;;;;;;;35.13;20.30;;;14.00;99.90;;;;;;5067322;28;20470;-61
2023/05/16 00:33:06;;;;;;;29.27;19.10;;;13.90;99.90;;;;;;5060616;28;20485;-61
2023/05/16 00:35:33;;;;;;;31.50;19.97;;;13.80;99.90;;;;;;5088555;27;20481;-61
2023/05/16 00:38:00;;;;;;;32.03;21.73;;;13.70;99.90;;;;;;5066832;28;20479;-61
2023/05/16 00:40:26;;;;;;;33.37;19.57;;;13.70;99.90;;;;;;5061937;28;20501;-60
2023/05/16 00:42:55;;;;;;;30.30;18.53;;;13.50;99.90;;;;;;5084060;27;20499;-61
2023/05/16 00:45:22;;;;;;;28.97;17.80;;;13.50;99.90;;;;;;5065135;27;21077;-60
2023/05/16 00:47:49;;;;;;;32.47;19.27;;;13.40;99.90;;;;;;5077306;28;20580;-61
2023/05/16 00:50:16;;;;;;;31.73;19.00;;;13.30;99.90;;;;;;5086356;28;20481;-60
2023/05/16 00:52:44;;;;;;;27.13;17.73;;;13.30;99.90;;;;;;5072919;27;20477;-61
2023/05/16 00:55:11;;;;;;;29.60;17.63;;;13.30;99.90;;;;;;5068179;27;20870;-60
2023/05/16 00:57:38;;;;;;;29.07;18.17;;;13.30;99.90;;;;;;5070627;28;20841;-61
2023/05/16 01:00:08;;;;;;;27.57;18.00;;;13.20;99.90;;;;;;5071898;28;20982;-60
2023/05/16 01:02:35;;;;;;;32.40;18.10;;;13.10;99.90;;;;;;5074959;27;20468;-60
2023/05/16 01:05:04;;;;;;;36.07;18.63;;;13.10;99.90;;;;;;5072696;27;20477;-60
2023/05/16 01:07:31;;;;;;;26.43;17.20;;;13.10;99.90;;;;;;5100159;27;20703;-60
2023/05/16 01:09:58;;;;;;;27.57;17.37;;;13.10;99.90;;;;;;5069700;28;20902;-61
2023/05/16 01:12:36;;;;;;;28.70;16.07;;;13.10;99.90;;;;;;5106719;27;20488;-61
2023/05/16 01:15:09;;;;;;;27.90;17.20;;;13.00;99.90;;;;;;5066963;28;20482;-61
2023/05/16 01:17:44;;;;;;;29.33;17.60;;;13.00;99.90;;;;;;5080654;28;20569;-61
2023/05/16 01:20:20;;;;;;;28.40;16.93;;;13.00;99.90;;;;;;5068723;28;21247;-61
2023/05/16 01:23:01;;;;;;;26.87;15.80;;;13.00;99.80;;;;;;5087443;27;20473;-61
2023/05/16 01:25:39;;;;;;;29.43;16.57;;;13.00;99.90;;;;;;5075611;27;20497;-61
2023/05/16 01:28:09;;;;;;;23.67;15.87;;;13.00;99.70;;;;;;5083634;27;21079;-61
2023/05/16 01:30:37;;;;;;;24.57;15.40;;;12.90;99.90;;;;;;5097918;27;20497;-61
2023/05/16 01:33:04;;;;;;;24.10;15.37;;;12.90;99.90;;;;;;5082451;28;20489;-61
2023/05/16 01:35:31;;;;;;;33.63;16.50;;;12.90;99.90;;;;;;5074990;28;20497;-60
2023/05/16 01:38:04;;;;;;;23.87;15.30;;;12.80;99.90;;;;;;5073340;28;20491;-61
2023/05/16 01:40:42;;;;;;;26.47;15.40;;;12.80;99.90;;;;;;5080356;28;20482;-62
2023/05/16 01:43:15;;;;;;;27.70;14.97;;;12.80;99.90;;;;;;5069685;28;20505;-61
2023/05/16 01:45:53;;;;;;;31.20;15.10;;;12.70;99.90;;;;;;5077448;27;21126;-61
2023/05/16 01:48:23;;;;;;;31.80;16.70;;;12.70;99.90;;;;;;5079733;27;20595;-61
2023/05/16 01:50:54;;;;;;;24.97;14.97;;;12.70;99.90;;;;;;5094816;27;20465;-61
2023/05/16 01:53:25;;;;;;;21.37;13.40;;;12.70;99.90;;;;;;5092665;27;20481;-62
2023/05/16 01:55:52;;;;;;;24.83;14.27;;;12.70;99.90;;;;;;5077475;27;20486;-61
2023/05/16 01:58:23;;;;;;;23.77;14.20;;;12.80;99.90;;;;;;5089991;27;20492;-61
2023/05/16 02:00:52;;;;;;;25.63;14.10;;;12.80;99.90;;;;;;5097437;27;20475;-60
2023/05/16 02:03:19;;;;;;;22.33;13.00;;;12.80;99.90;;;;;;5074446;28;20486;-60
2023/05/16 02:05:46;;;;;;;20.70;12.47;;;12.80;99.90;;;;;;5067523;27;20488;-60
2023/05/16 02:08:14;;;;;;;25.43;13.50;;;12.80;99.90;;;;;;5074353;27;21015;-60
2023/05/16 02:10:40;;;;;;;22.57;13.50;;;12.90;99.90;;;;;;5097549;27;20482;-60
2023/05/16 02:13:07;;;;;;;20.00;12.00;;;12.90;99.90;;;;;;5091178;27;20467;-60
2023/05/16 02:15:35;;;;;;;22.43;12.77;;;12.90;99.90;;;;;;5082225;27;20490;-60
2023/05/16 02:18:02;;;;;;;20.27;12.13;;;13.00;99.90;;;;;;5081191;27;20743;-60
2023/05/16 02:20:29;;;;;;;22.33;12.13;;;12.90;99.90;;;;;;5087617;27;20468;-60
2023/05/16 02:22:56;;;;;;;20.47;12.60;;;12.90;99.90;;;;;;5091202;27;20920;-60
2023/05/16 02:25:23;;;;;;;19.80;12.70;;;12.90;99.90;;;;;;5095531;27;20481;-60
2023/05/16 02:27:50;;;;;;;24.07;11.80;;;12.90;99.90;;;;;;5090840;27;20486;-60
2023/05/16 02:30:17;;;;;;;22.90;12.53;;;13.00;99.90;;;;;;5069203;28;20852;-61
2023/05/16 02:32:45;;;;;;;19.90;11.63;;;13.00;99.90;;;;;;5078452;28;20480;-61
2023/05/16 02:35:12;;;;;;;17.47;12.20;;;13.00;99.90;;;;;;5072942;28;20888;-61
2023/05/16 02:37:39;;;;;;;21.03;12.10;;;13.00;99.90;;;;;;5083161;28;20481;-61
2023/05/16 02:40:08;;;;;;;17.00;11.43;;;13.00;99.90;;;;;;5068047;28;20971;-61
2023/05/16 02:42:34;;;;;;;18.53;10.70;;;12.90;99.90;;;;;;5079817;28;20944;-61
2023/05/16 02:45:01;;;;;;;19.93;12.73;;;13.00;99.90;;;;;;5081070;28;21008;-61
2023/05/16 02:47:28;;;;;;;19.70;12.73;;;13.10;99.90;;;;;;5075374;28;20476;-61
2023/05/16 02:49:56;;;;;;;18.37;12.00;;;13.10;99.90;;;;;;5086489;27;20497;-61
2023/05/16 02:52:23;;;;;;;21.77;11.10;;;13.20;99.90;;;;;;5085823;27;20525;-61
2023/05/16 02:54:50;;;;;;;22.90;12.03;;;13.20;99.90;;;;;;5109992;27;20477;-61
2023/05/16 02:57:17;;;;;;;19.93;11.73;;;13.20;99.90;;;;;;5068661;28;20485;-62
2023/05/16 02:59:44;;;;;;;20.60;11.27;;;13.20;99.90;;;;;;5087562;27;20476;-61
2023/05/16 03:02:11;;;;;;;20.27;12.30;;;13.30;99.90;;;;;;5080770;28;20544;-61
2023/05/16 03:04:37;;;;;;;21.37;11.80;;;13.30;99.90;;;;;;5076823;28;20478;-61
2023/05/16 03:07:06;;;;;;;24.67;16.13;;;13.30;99.90;;;;;;5076818;27;20479;-61
2023/05/16 03:09:33;;;;;;;60.23;29.57;;;13.40;99.90;;;;;;5106313;27;21001;-61
2023/05/16 03:12:00;;;;;;;22.77;14.73;;;13.40;99.90;;;;;;5077364;27;20922;-60
2023/05/16 03:14:27;;;;;;;24.90;14.43;;;13.40;99.90;;;;;;5088308;27;20483;-61
2023/05/16 03:16:54;;;;;;;18.20;12.47;;;13.40;99.90;;;;;;5061749;28;20524;-60
2023/05/16 03:19:20;;;;;;;25.57;12.27;;;13.40;99.90;;;;;;5070455;28;20986;-61
2023/05/16 03:21:47;;;;;;;20.70;11.57;;;13.40;99.90;;;;;;5066729;28;20521;-60
2023/05/16 03:24:16;;;;;;;21.27;11.20;;;13.30;99.90;;;;;;5072563;28;20910;-60
2023/05/16 03:26:43;;;;;;;18.33;11.10;;;13.30;99.90;;;;;;5099884;27;20915;-61
2023/05/16 03:29:10;;;;;;;16.63;11.37;;;13.30;99.90;;;;;;5063548;28;20481;-61
2023/05/16 03:31:36;;;;;;;19.80;12.20;;;13.30;99.90;;;;;;5076477;27;20476;-61
2023/05/16 03:34:03;;;;;;;19.00;10.67;;;13.40;99.90;;;;;;5073079;27;20478;-61
2023/05/16 03:36:30;;;;;;;17.67;10.60;;;13.30;99.90;;;;;;5075132;27;20908;-60
2023/05/16 03:38:57;;;;;;;23.57;11.47;;;13.40;99.90;;;;;;5082053;28;20490;-60
2023/05/16 03:41:25;;;;;;;19.57;11.47;;;13.50;99.90;;;;;;5070096;28;20486;-61
2023/05/16 03:43:52;;;;;;;16.57;10.70;;;13.50;99.90;;;;;;5096096;27;20476;-61
2023/05/16 03:46:19;;;;;;;20.13;13.70;;;13.50;99.90;;;;;;5072646;28;20505;-60
2023/05/16 03:48:46;;;;;;;18.90;11.03;;;13.40;99.90;;;;;;5067915;28;20478;-61
2023/05/16 03:51:13;;;;;;;23.63;11.87;;;13.40;99.90;;;;;;5089386;28;20550;-61
2023/05/16 03:53:40;;;;;;;21.47;11.23;;;13.40;99.90;;;;;;5065961;28;20589;-62
2023/05/16 03:56:07;;;;;;;19.67;11.80;;;13.40;99.90;;;;;;5081895;27;21021;-61
2023/05/16 03:58:35;;;;;;;18.90;12.23;;;13.30;99.90;;;;;;5082008;28;20474;-61
2023/05/16 04:01:02;;;;;;;24.07;12.50;;;13.20;99.90;;;;;;5064478;27;20900;-60
2023/05/16 04:03:29;;;;;;;23.70;11.27;;;13.20;99.90;;;;;;5083208;27;20479;-60
2023/05/16 04:05:56;;;;;;;23.50;13.17;;;13.20;99.90;;;;;;5086868;27;20473;-61
2023/05/16 04:08:23;;;;;;;22.57;13.10;;;13.10;99.90;;;;;;5059453;27;20489;-60
2023/05/16 04:10:50;;;;;;;22.07;12.93;;;13.10;99.90;;;;;;5092364;27;20678;-61
2023/05/16 04:13:16;;;;;;;21.00;11.10;;;13.10;99.90;;;;;;5075885;28;20547;-60
2023/05/16 04:15:45;;;;;;;18.83;11.90;;;13.10;99.90;;;;;;5087346;28;20560;-60
2023/05/16 04:18:13;;;;;;;20.87;12.30;;;13.10;99.90;;;;;;5064720;28;21150;-61
2023/05/16 04:20:41;;;;;;;17.50;11.43;;;13.10;99.90;;;;;;5072584;28;20482;-61
2023/05/16 04:23:09;;;;;;;20.63;11.97;;;13.10;99.90;;;;;;5077580;28;20466;-61
2023/05/16 04:25:36;;;;;;;21.67;11.80;;;13.10;99.90;;;;;;5075155;28;20775;-61
2023/05/16 04:28:03;;;;;;;18.50;10.97;;;13.10;99.90;;;;;;5099269;27;20490;-61
2023/05/16 04:30:30;;;;;;;19.27;11.57;;;13.10;99.90;;;;;;5068805;28;20481;-60
2023/05/16 04:32:59;;;;;;;17.40;11.00;;;13.20;99.90;;;;;;5085853;28;20569;-60
2023/05/16 04:35:26;;;;;;;22.40;11.03;;;13.20;99.90;;;;;;5077577;27;20558;-60
2023/05/16 04:37:53;;;;;;;20.20;12.27;;;13.20;99.90;;;;;;5085467;28;20476;-60
2023/05/16 04:40:20;;;;;;;15.33;10.00;;;13.30;99.90;;;;;;5087865;28;20492;-60
2023/05/16 04:42:47;;;;;;;15.37;11.20;;;13.30;99.90;;;;;;5099986;28;20477;-60
2023/05/16 04:45:14;;;;;;;19.40;10.73;;;13.30;99.90;;;;;;5089981;27;20498;-60
2023/05/16 04:47:41;;;;;;;14.73;9.90;;;13.40;99.90;;;;;;5072326;28;20477;-60
2023/05/16 04:50:10;;;;;;;19.10;11.33;;;13.40;99.90;;;;;;5065939;28;20513;-60
2023/05/16 04:52:38;;;;;;;21.13;12.20;;;13.40;99.90;;;;;;5067633;28;20473;-60
2023/05/16 04:55:05;;;;;;;21.47;12.97;;;13.40;99.90;;;;;;5073505;28;20489;-60
2023/05/16 04:57:32;;;;;;;16.33;10.43;;;13.50;99.90;;;;;;5079673;28;20475;-60
2023/05/16 04:59:59;;;;;;;17.43;10.60;;;13.50;99.90;;;;;;5063890;28;20490;-61
2023/05/16 05:02:26;;;;;;;16.30;9.83;;;13.50;99.90;;;;;;5072898;28;21074;-60
2023/05/16 05:04:53;;;;;;;16.37;10.60;;;13.50;99.90;;;;;;5083700;27;20528;-60
2023/05/16 05:07:21;;;;;;;28.13;17.93;;;13.50;99.90;;;;;;5077882;28;20485;-60
2023/05/16 05:09:48;;;;;;;17.57;11.00;;;13.50;99.90;;;;;;5074932;28;20847;-60
2023/05/16 05:12:15;;;;;;;14.50;9.80;;;13.50;99.90;;;;;;5066274;28;20497;-60
2023/05/16 05:14:42;;;;;;;15.30;9.40;;;13.50;99.90;;;;;;5091108;27;20615;-60
2023/05/16 05:17:08;;;;;;;18.30;10.87;;;13.50;99.90;;;;;;5072288;28;20834;-60
2023/05/16 05:19:35;;;;;;;20.27;10.43;;;13.40;99.90;;;;;;5079971;28;20849;-60
2023/05/16 05:22:02;;;;;;;19.00;9.90;;;13.40;99.90;;;;;;5070627;28;20975;-60
2023/05/16 05:24:30;;;;;;;13.60;9.63;;;13.40;99.90;;;;;;5063525;28;20504;-60
2023/05/16 05:26:57;;;;;;;18.83;10.03;;;13.50;99.90;;;;;;5093723;27;20493;-60
2023/05/16 05:29:24;;;;;;;18.27;10.70;;;13.50;99.90;;;;;;5075791;28;20490;-60
2023/05/16 05:31:50;;;;;;;14.37;9.40;;;13.40;99.90;;;;;;5085187;28;20495;-60
2023/05/16 05:34:17;;;;;;;22.60;9.50;;;13.50;99.90;;;;;;5085726;28;20512;-60
2023/05/16 05:36:44;;;;;;;15.03;9.17;;;13.50;99.90;;;;;;5075282;28;20492;-60
2023/05/16 05:39:11;;;;;;;14.53;9.50;;;13.60;99.90;;;;;;5076157;28;20470;-60
2023/05/16 05:41:39;;;;;;;13.20;9.30;;;13.60;99.90;;;;;;5076494;27;20482;-60
2023/05/16 05:44:06;;;;;;;13.30;8.47;;;13.70;99.90;;;;;;5121972;27;21053;-61
2023/05/16 05:46:34;;;;;;;10.43;6.47;;;13.70;99.90;;;;;;5077322;27;20474;-61
2023/05/16 05:49:01;;;;;;;13.63;8.17;;;13.70;99.90;;;;;;5032942;28;20489;-60
2023/05/16 05:51:28;;;;;;;16.30;6.97;;;13.60;99.90;;;;;;5091858;27;20486;-61
2023/05/16 05:53:56;;;;;;;11.43;6.60;;;13.60;99.90;;;;;;5066276;28;21057;-61
2023/05/16 05:56:23;;;;;;;7.57;5.90;;;13.50;99.90;;;;;;5084181;27;20485;-61
2023/05/16 05:58:51;;;;;;;7.50;6.17;;;13.50;99.90;;;;;;5092882;27;20557;-61
2023/05/16 06:01:19;;;;;;;9.10;6.70;;;13.50;99.90;;;;;;5058462;28;20534;-61
2023/05/16 06:03:46;;;;;;;9.10;5.70;;;13.50;99.90;;;;;;5073428;28;20482;-61
2023/05/16 06:06:14;;;;;;;9.30;6.30;;;13.50;99.90;;;;;;5073502;28;20494;-61
2023/05/16 06:08:41;;;;;;;9.00;5.00;;;13.50;99.90;;;;;;5080250;28;21006;-61
2023/05/16 06:11:08;;;;;;;7.77;5.87;;;13.50;99.90;;;;;;5074379;28;20590;-61
2023/05/16 06:13:35;;;;;;;6.37;4.83;;;13.60;99.90;;;;;;5072785;28;21147;-60
2023/05/16 06:16:04;;;;;;;6.73;5.10;;;13.60;99.90;;;;;;5075769;27;20988;-60
2023/05/16 06:18:31;;;;;;;8.40;5.97;;;13.70;99.90;;;;;;5072277;27;20683;-60
2023/05/16 06:20:58;;;;;;;8.47;5.23;;;13.80;99.90;;;;;;5067964;27;20838;-60
2023/05/16 06:23:24;;;;;;;4.43;4.03;;;13.80;99.90;;;;;;5098440;27;20477;-60
2023/05/16 06:25:51;;;;;;;4.47;4.07;;;13.90;99.90;;;;;;5070525;28;20474;-60
2023/05/16 06:28:18;;;;;;;3.97;3.13;;;13.90;99.90;;;;;;5069594;28;20488;-60
2023/05/16 06:30:46;;;;;;;6.97;2.30;;;14.00;99.90;;;;;;5078382;28;20481;-60
2023/05/16 06:33:15;;;;;;;4.07;2.23;;;14.00;99.90;;;;;;5081671;27;20485;-60
2023/05/16 06:35:42;;;;;;;3.57;2.27;;;14.10;99.60;;;;;;5062078;28;20478;-60
2023/05/16 06:38:08;;;;;;;7.57;2.17;;;14.20;99.50;;;;;;5074724;28;20694;-60
2023/05/16 06:40:36;;;;;;;2.37;1.97;;;14.30;99.10;;;;;;5101373;27;20480;-60
2023/05/16 06:43:03;;;;;;;2.57;1.57;;;14.30;99.20;;;;;;5085563;28;20463;-61
2023/05/16 06:45:29;;;;;;;4.37;1.97;;;14.20;98.30;;;;;;5073699;27;20488;-60
2023/05/16 06:47:56;;;;;;;2.00;1.40;;;14.30;99.00;;;;;;5093032;27;20849;-60
2023/05/16 06:50:25;;;;;;;2.40;1.37;;;14.20;98.70;;;;;;5080588;28;20463;-60
2023/05/16 06:52:51;;;;;;;2.83;1.30;;;14.10;98.40;;;;;;5105174;27;20472;-60
2023/05/16 06:55:18;;;;;;;1.90;1.03;;;14.00;97.80;;;;;;5072514;27;20470;-60
2023/05/16 06:57:45;;;;;;;3.27;1.50;;;13.90;98.30;;;;;;5046679;27;20479;-60
2023/05/16 07:00:13;;;;;;;2.17;1.27;;;13.90;98.50;;;;;;5099085;27;20574;-61
2023/05/16 07:02:40;;;;;;;2.40;1.40;;;13.90;98.80;;;;;;5070223;28;20508;-62
2023/05/16 07:05:07;;;;;;;2.20;1.53;;;13.80;98.20;;;;;;5079200;28;20747;-60
2023/05/16 07:07:36;;;;;;;2.10;1.40;;;13.70;98.10;;;;;;5081076;28;20470;-60
2023/05/16 07:10:03;;;;;;;4.07;2.60;;;13.60;98.20;;;;;;5079280;27;21087;-61
2023/05/16 07:12:30;;;;;;;2.70;2.07;;;13.60;98.10;;;;;;5077435;28;20874;-60
2023/05/16 07:14:56;;;;;;;2.10;1.50;;;13.50;98.20;;;;;;5092123;27;20485;-60
2023/05/16 07:17:23;;;;;;;5.43;1.60;;;13.50;98.50;;;;;;5078186;28;20474;-60
2023/05/16 07:19:50;;;;;;;2.40;1.47;;;13.50;98.20;;;;;;5085976;27;20523;-60
2023/05/16 07:22:17;;;;;;;1.90;1.40;;;13.50;98.40;;;;;;5075345;28;20474;-60
2023/05/16 07:24:45;;;;;;;2.00;1.03;;;13.50;98.60;;;;;;5089481;27;20478;-60
2023/05/16 07:27:12;;;;;;;2.60;1.60;;;13.60;98.00;;;;;;5082825;27;20481;-60
2023/05/16 07:29:39;;;;;;;2.20;1.60;;;13.60;98.00;;;;;;5065265;28;20493;-60
2023/05/16 07:32:07;;;;;;;2.20;1.23;;;13.50;98.20;;;;;;5084796;27;20605;-60
2023/05/16 07:34:36;;;;;;;2.17;1.70;;;13.60;98.30;;;;;;5093312;27;20486;-60
2023/05/16 07:37:03;;;;;;;3.20;1.10;;;13.60;98.10;;;;;;5090861;27;20978;-61
2023/05/16 07:39:30;;;;;;;2.20;1.50;;;13.60;97.60;;;;;;5079098;28;20548;-60
2023/05/16 07:41:58;;;;;;;1.90;1.33;;;13.50;97.00;;;;;;5083056;27;20480;-60
2023/05/16 07:44:25;;;;;;;3.10;1.00;;;13.40;96.90;;;;;;5084435;27;20479;-60
2023/05/16 07:46:52;;;;;;;2.53;2.07;;;13.20;96.50;;;;;;5070478;28;20556;-60
2023/05/16 07:49:19;;;;;;;3.00;1.77;;;13.10;96.50;;;;;;5063055;28;20873;-60
2023/05/16 07:51:46;;;;;;;3.87;2.30;;;13.10;96.90;;;;;;5068907;28;20486;-60
2023/05/16 07:54:13;;;;;;;3.00;1.60;;;13.10;96.90;;;;;;5069134;28;20674;-61
2023/05/16 07:56:40;;;;;;;7.07;1.33;;;13.00;96.40;;;;;;5091488;27;20480;-61
2023/05/16 07:59:08;;;;;;;1.97;0.97;;;13.00;96.70;;;;;;5068945;27;20482;-61
2023/05/16 08:01:35;;;;;;;3.80;1.10;;;12.90;96.80;;;;;;5075903;28;20528;-60
2023/05/16 08:04:02;;;;;;;3.80;2.50;;;12.80;96.80;;;;;;5061330;28;20481;-61
2023/05/16 08:06:30;;;;;;;1.80;1.20;;;12.80;96.90;;;;;;5079076;28;20967;-61
2023/05/16 08:08:56;;;;;;;1.73;1.00;;;12.90;97.00;;;;;;5084844;28;20496;-61
2023/05/16 08:11:23;;;;;;;6.27;1.60;;;12.80;96.70;;;;;;5095123;28;20966;-61
2023/05/16 08:13:50;;;;;;;2.27;1.10;;;12.80;96.60;;;;;;5081033;28;20495;-61
2023/05/16 08:16:18;;;;;;;2.20;1.00;;;12.80;97.00;;;;;;5084892;28;20481;-61
2023/05/16 08:18:45;;;;;;;1.70;1.10;;;12.80;97.20;;;;;;5075371;28;20488;-61
2023/05/16 08:21:12;;;;;;;1.90;1.07;;;12.70;96.60;;;;;;5067420;27;20471;-61
2023/05/16 08:23:40;;;;;;;2.03;1.47;;;12.80;97.00;;;;;;5076421;28;21022;-61
2023/05/16 08:26:07;;;;;;;2.00;1.10;;;12.80;97.00;;;;;;5063585;27;20946;-61
2023/05/16 08:28:34;;;;;;;2.20;1.60;;;12.70;96.70;;;;;;5096581;27;20489;-61
2023/05/16 08:31:01;;;;;;;8.63;1.60;;;12.80;97.00;;;;;;5085017;27;20737;-61
2023/05/16 08:33:29;;;;;;;3.23;1.37;;;12.70;96.50;;;;;;5071300;28;20481;-61
2023/05/16 08:35:56;;;;;;;6.83;1.50;;;12.60;96.80;;;;;;5075295;28;20485;-61
2023/05/16 08:38:22;;;;;;;1.90;1.20;;;12.60;97.30;;;;;;5079576;28;20474;-61
2023/05/16 08:40:49;;;;;;;1.90;1.30;;;12.60;97.90;;;;;;5078319;27;20483;-61
2023/05/16 08:43:16;;;;;;;1.90;1.20;;;12.60;97.80;;;;;;5097022;27;20938;-61
2023/05/16 08:45:43;;;;;;;4.57;1.57;;;12.60;98.20;;;;;;5070869;27;20480;-61
2023/05/16 08:48:11;;;;;;;2.50;1.23;;;12.60;98.20;;;;;;5075962;28;20489;-61
2023/05/16 08:50:41;;;;;;;2.63;1.70;;;12.60;98.10;;;;;;5071833;28;20547;-61
2023/05/16 08:53:10;;;;;;;2.80;1.57;;;12.60;98.00;;;;;;5055282;28;20486;-61
2023/05/16 08:55:38;;;;;;;3.07;1.33;;;12.60;97.90;;;;;;5112179;27;20476;-61
2023/05/16 08:58:06;;;;;;;3.13;1.30;;;12.50;97.90;;;;;;5090360;27;20482;-61
2023/05/16 09:00:33;;;;;;;9.33;1.90;;;;;;;;;;5072966;27;20484;-61
2023/05/16 09:03:00;;;;;;;2.63;1.90;;;12.60;97.90;;;;;;5103793;27;20842;-61
2023/05/16 09:05:29;;;;;;;2.73;1.73;;;12.50;97.70;;;;;;5072803;28;20478;-61
2023/05/16 09:07:58;;;;;;;2.63;1.43;;;12.50;97.80;;;;;;5072974;27;20513;-61
2023/05/16 09:10:25;;;;;;;2.40;2.20;;;12.50;97.60;;;;;;5091879;27;20519;-61
2023/05/16 09:12:52;;;;;;;2.73;1.23;;;12.50;97.50;;;;;;5096096;27;20465;-61
2023/05/16 09:15:20;;;;;;;2.50;2.03;;;12.50;97.50;;;;;;5083200;27;20988;-61
2023/05/16 09:17:47;;;;;;;5.17;2.00;;;12.60;97.60;;;;;;5076509;27;20559;-62
2023/05/16 09:20:16;;;;;;;2.40;1.73;;;12.60;98.10;;;;;;5071933;28;20489;-60
2023/05/16 09:22:52;;;;;;;5.73;2.20;;;12.70;97.70;;;;;;5074859;28;20993;-61
2023/05/16 09:25:21;;;;;;;3.67;1.90;;;12.70;97.60;;;;;;5082337;28;20526;-61
2023/05/16 09:27:48;;;;;;;2.40;2.13;;;12.70;97.10;;;;;;5070749;27;20531;-61
2023/05/16 09:30:16;;;;;;;3.57;1.73;;;12.80;97.40;;;;;;5102958;27;20474;-61
2023/05/16 09:32:46;;;;;;;3.90;1.70;;;12.70;97.10;;;;;;5081505;27;21141;-61
2023/05/16 09:35:15;;;;;;;4.43;1.80;;;12.70;97.10;;;;;;5065414;27;20480;-61
2023/05/16 09:37:45;;;;;;;2.73;1.90;;;12.70;96.80;;;;;;5068261;28;21063;-61
2023/05/16 09:40:13;;;;;;;5.93;2.13;;;12.70;96.80;;;;;;5087051;27;20636;-61
2023/05/16 09:42:41;;;;;;;2.10;1.90;;;12.70;97.00;;;;;;5090939;27;20478;-61
2023/05/16 09:45:12;;;;;;;2.20;1.60;;;12.70;96.80;;;;;;5060849;27;20685;-61
2023/05/16 09:47:45;;;;;;;3.63;2.20;;;12.70;96.50;;;;;;5096135;27;20908;-61
2023/05/16 09:50:14;;;;;;;2.00;1.40;;;12.80;97.10;;;;;;5074781;28;20470;-61
2023/05/16 09:52:41;;;;;;;3.73;2.00;;;12.80;96.90;;;;;;5059459;28;20482;-61
2023/05/16 09:55:08;;;;;;;3.17;1.97;;;12.80;96.70;;;;;;5086069;28;23354;-61
2023/05/16 09:57:38;;;;;;;2.73;2.20;;;12.90;97.20;;;;;;5075879;28;21011;-61
2023/05/16 10:00:10;;;;;;;2.63;2.07;;;13.00;97.20;;;;;;5093593;28;20511;-61
2023/05/16 10:02:38;;;;;;;2.70;2.00;;;13.00;97.50;;;;;;5097214;27;20483;-61
2023/05/16 10:05:05;;;;;;;7.23;2.33;;;12.90;96.70;;;;;;5089470;28;20478;-61
2023/05/16 10:07:33;;;;;;;3.03;2.60;;;12.90;96.70;;;;;;5064721;28;20481;-61
2023/05/16 10:10:05;;;;;;;4.17;2.60;;;12.90;97.10;;;;;;5098984;27;20477;-61
2023/05/16 10:12:33;;;;;;;5.10;2.50;;;12.90;96.90;;;;;;5098914;27;20488;-62
2023/05/16 10:15:01;;;;;;;4.00;2.70;;;12.90;97.10;;;;;;5084244;27;20480;-61
2023/05/16 10:17:32;;;;;;;5.07;2.80;;;13.00;96.90;;;;;;5078581;27;20474;-61
2023/05/16 10:20:04;;;;;;;7.97;3.70;;;13.10;96.90;;;;;;5093991;27;20587;-61
2023/05/16 10:22:34;;;;;;;4.30;2.40;;;13.00;96.30;;;;;;5095048;27;20486;-63
2023/05/16 10:25:09;;;;;;;2.43;1.90;;;13.00;96.20;;;;;;5084034;28;20835;-60
2023/05/16 10:27:36;;;;;;;3.30;2.97;;;12.80;96.20;;;;;;5065006;27;20476;-61
2023/05/16 10:30:04;;;;;;;5.10;3.40;;;12.90;96.30;;;;;;5088842;27;20483;-61
2023/05/16 10:32:34;;;;;;;7.10;3.07;;;12.90;96.40;;;;;;5088972;27;20482;-61
2023/05/16 10:35:02;;;;;;;5.70;2.90;;;12.90;96.30;;;;;;5080216;27;20985;-61
2023/05/16 10:37:30;;;;;;;5.00;3.13;;;13.00;96.20;;;;;;5095093;27;20483;-61
2023/05/16 10:39:59;;;;;;;3.70;3.20;;;12.90;96.40;;;;;;5074602;27;20488;-61
2023/05/16 10:42:26;;;;;;;2.97;2.73;;;13.00;96.30;;;;;;5087662;27;20477;-61
2023/05/16 10:44:55;;;;;;;5.23;3.40;;;13.00;95.90;;;;;;5101036;27;20953;-61
2023/05/16 10:47:21;;;;;;;6.17;3.47;;;12.90;95.60;;;;;;5076302;27;20913;-61
2023/05/16 10:49:50;;;;;;;3.50;2.80;;;13.00;96.20;;;;;;5090392;27;20845;-61
2023/05/16 10:52:16;;;;;;;8.80;2.87;;;13.00;95.90;;;;;;5074502;27;20489;-61
2023/05/16 10:54:50;;;;;;;7.53;3.80;;;13.10;95.90;;;;;;5073834;28;20552;-61
2023/05/16 10:57:19;;;;;;;4.30;3.13;;;13.10;95.90;;;;;;5053342;28;20469;-61
2023/05/16 10:59:47;;;;;;;4.37;3.63;;;13.30;95.70;;;;;;5082336;28;20474;-61
2023/05/16 11:02:27;;;;;;;10.10;4.07;;;13.50;95.70;;;;;;5060390;28;20835;-61
2023/05/16 11:04:58;;;;;;;5.83;4.50;;;13.50;95.80;;;;;;5071611;28;20837;-61
2023/05/16 11:07:26;;;;;;;5.93;3.30;;;13.80;95.60;;;;;;5067159;28;20489;-61
2023/05/16 11:10:09;;;;;;;6.07;4.07;;;13.80;95.20;;;;;;5074681;27;20493;-62
2023/05/16 11:12:45;;;;;;;5.27;3.50;;;13.90;95.40;;;;;;5093747;27;20465;-61
2023/05/16 11:15:23;;;;;;;4.20;3.33;;;14.00;95.70;;;;;;5095180;27;21438;-61
2023/05/16 11:17:50;;;;;;;8.23;3.30;;;14.10;94.80;;;;;;5064324;28;20557;-61
2023/05/16 11:20:30;;;;;;;10.23;3.70;;;14.20;95.00;;;;;;5084414;27;20995;-61
2023/05/16 11:23:26;;;;;;;6.17;3.10;;;14.40;93.90;;;;;;5076561;28;21085;-61
2023/05/16 11:25:56;;;;;;;4.73;1.80;;;14.40;92.60;;;;;;5080820;28;20725;-61
2023/05/16 11:28:24;;;;;;;6.20;3.30;;;14.30;92.70;;;;;;5079851;28;20665;-62
2023/05/16 11:30:54;;;;;;;7.77;3.00;;;14.30;92.60;;;;;;5094742;27;20493;-61
2023/05/16 11:33:22;;;;;;;7.00;2.47;;;14.40;92.60;;;;;;5068918;27;20484;-61
2023/05/16 11:36:04;;;;;;;4.80;2.87;;;14.50;92.00;;;;;;5106405;27;20847;-61
2023/05/16 11:38:32;;;;;;;6.80;1.97;;;14.50;92.00;;;;;;5082853;28;20558;-61
2023/05/16 11:41:06;;;;;;;10.10;3.40;;;14.50;91.90;;;;;;5071529;27;20477;-61
2023/05/16 11:43:41;;;;;;;4.40;2.40;;;14.60;92.00;;;;;;5091768;27;20477;-61
2023/05/16 11:46:11;;;;;;;3.90;2.27;;;14.70;91.70;;;;;;5069375;27;20683;-61
2023/05/16 11:48:38;;;;;;;5.37;3.40;;;14.80;92.60;;;;;;5074471;28;20482;-61
2023/05/16 11:51:06;;;;;;;7.30;2.93;;;14.80;92.20;;;;;;5071010;28;20857;-61
2023/05/16 11:53:34;;;;;;;7.37;3.10;;;15.00;91.80;;;;;;5093255;28;20481;-61
2023/05/16 11:56:02;;;;;;;4.93;2.60;;;15.20;91.80;;;;;;5089905;27;20528;-61
2023/05/16 11:58:29;;;;;;;8.63;3.20;;;15.20;91.80;;;;;;5081211;28;20674;-62
2023/05/16 12:00:55;;;;;;;9.83;2.93;;;15.50;91.70;;;;;;5092751;28;20488;-61
2023/05/16 12:03:23;;;;;;;11.87;3.60;;;15.70;91.60;;;;;;5076875;27;20979;-60
2023/05/16 12:05:52;;;;;;;6.40;3.03;;;15.70;91.80;;;;;;5090306;27;20497;-61
2023/05/16 12:08:21;;;;;;;5.53;2.30;;;16.00;91.10;;;;;;5080331;28;20475;-61
2023/05/16 12:10:50;;;;;;;6.40;2.80;;;16.10;91.90;;;;;;5088510;28;20474;-62
2023/05/16 12:13:18;;;;;;;6.23;2.90;;;16.30;91.70;;;;;;5090897;28;20497;-62
2023/05/16 12:15:45;;;;;;;8.57;3.20;;;16.60;91.90;;;;;;5079578;28;20488;-62
2023/05/16 12:18:13;;;;;;;8.10;2.70;;;16.60;91.30;;;;;;5073974;27;20890;-62
2023/05/16 12:20:40;;;;;;;4.83;2.80;;;16.80;90.70;;;;;;5078339;28;20478;-62
2023/05/16 12:23:11;;;;;;;9.50;2.30;;;16.90;90.20;;;;;;5067240;28;20493;-62
2023/05/16 12:25:45;;;;;;;4.93;3.23;;;16.90;90.60;;;;;;5077981;28;20480;-62
2023/05/16 12:28:13;;;;;;;6.87;3.90;;;16.90;90.40;;;;;;5089922;28;21133;-61
2023/05/16 12:30:42;;;;;;;6.90;3.20;;;16.70;90.00;;;;;;5068047;27;20478;-62
2023/05/16 12:33:10;;;;;;;6.93;2.50;;;16.70;90.50;;;;;;5099961;28;20500;-62
2023/05/16 12:35:39;;;;;;;7.93;2.90;;;16.60;90.10;;;;;;5065022;28;20470;-62
2023/05/16 12:38:06;;;;;;;5.40;2.60;;;16.70;89.30;;;;;;5063298;27;20480;-62
2023/05/16 12:40:33;;;;;;;8.53;2.93;;;16.80;89.60;;;;;;5090706;27;20470;-63
2023/05/16 12:43:01;;;;;;;10.03;2.97;;;16.80;89.60;;;;;;5063395;28;20591;-63